Portada
METAR-TAF:

METAR-TAF

Aeropuertos :

Brunéi, Brunéi

Aeropuerto Internacional de Brunéi

latitud: 04-56N, longitud: 114-56E, altitud: 22 m

Observación

El informe se hizo hace 39 minutos, a las 20:00 UTC
Viento 2 kt del oeste-suroeste
Temperatura 25°C
Humedad 100%
Presión 1010 hPa
Visibilidad 10 km o más
Escasas nubes a una altura de 500 ft
Cielo nuboso a una altura de 30000 ft

METAR: WBSB 272000Z 25002KT 9999 FEW005 BKN300 25/25 Q1010 NOSIG

Hora: 04:39 (20:39 UTC)

Pronóstico

El informe se hizo hace 3 horas y 49 minutos, a las 16:50 UTC
Pronóstico válido del 27 a las 18 UTC al 29 a las 00 UTC
Viento 2 kt del sur-suroeste
Visibilidad 10 km o más
Escasas nubes a una altura de 1400 ft
Evolucionando progresivamente
del 28 a las 03 UTC al 28 a las 05 UTC
Viento 8 kt del noroeste
Escasas nubes a una altura de 1600 ft
Escasas nubes a una altura de 1700 ft, Cumulonimbus.

TAF: WBSB 271650Z 2718/2900 20002KT 9999 FEW014 BECMG 2803/2805 32008KT FEW016 FEW017CB

Observaciones y pronósticos meteorológicos de más de 4000 aeropuertos (mensajes METAR y TAF).

Los puntos amarillos y rojos representan las estaciones disponibles.

Ponga el ratón en el punto deseado para ver el nombre de la estación.

Haga clic para ver las observaciones y los pronósticos meteorológicos.

Para cambiar el mapa : haga clic en los botones verdes con una cruz de color negro para hacer un zoom, en el botón verde con un guión para alejar o en las flechas verdes para mapas adyacentes.


METAR-TAF: